KDNS

Denison Municipal Airport

Denison, Iowa, USA
METAR KDNS 200655Z AUTO 34006KT 1 3/4SM -RA OVC003 M05/M06 A2984 RMK AO2
Observed Flight Rules
Feb-20 @ 06:55 UTC (34 minutes ago) Instrument Flight Rules
Wind Visibility Clouds Conditions
340° at 6 knots 1 3/4 miles
  • Overcast at 300' AGL
  • Light Rain
Temperatures Readings
Current -5°C / 23°F
Dewpoint -6°C / 21°F
Humidity 93%
Altimeter 29.84" Hg
Pressure 1010 hPa
Elevation 388
METAR KDNS 200655Z AUTO 34006KT 1 3/4SM -RA OVC003 M05/M06 A2984 RMK AO2
Observed Flight Rules
Feb-20 @ 06:55 UTC
(34 minutes ago)
LIFR
Wind Visibility
340° at 6 knots 1 3/4 miles
Clouds
  • Overcast at 300' AGL
Conditions
  • Light Rain
Temperature Dewpoint
-5°C / 23°F -6°C / 21°F
Humidity Altimeter Pressure
93% 29.84" Hg 1010 hPa